createdAt,value
2023-04-03T00:04:27.857Z,99190.25
2023-04-03T00:09:30.468Z,99191.91
2023-04-03T00:14:33.302Z,99198.75
2023-04-03T00:19:36.337Z,99196.25
2023-04-03T00:24:38.975Z,99200.56
2023-04-03T00:29:41.668Z,99168.13
2023-04-03T00:34:45.074Z,99193.72
2023-04-03T00:39:47.785Z,99188.63
2023-04-03T00:44:50.485Z,99191.19
2023-04-03T00:49:54.615Z,99195.50
2023-04-03T00:55:03.409Z,99188.63
2023-04-03T01:00:10.502Z,99194.63
2023-04-03T01:05:14.191Z,99191.19
2023-04-03T01:10:20.715Z,99190.34
2023-04-03T01:15:29.991Z,99201.47
2023-04-03T01:20:32.633Z,99194.63
2023-04-03T01:25:42.478Z,99199.78
2023-04-03T01:31:00.927Z,99198.13
2023-04-03T01:36:05.580Z,99201.63
2023-04-03T01:41:09.327Z,99204.28
2023-04-03T01:46:12.823Z,99202.59
2023-04-03T01:51:15.706Z,99189.81
2023-04-03T01:56:18.553Z,99206.06
2023-04-03T02:01:22.340Z,99212.91
2023-04-03T02:06:25.326Z,99201.72
2023-04-03T02:11:28.005Z,99175.16
2023-04-03T02:16:31.881Z,99199.97
2023-04-03T02:21:34.570Z,99200.03
2023-04-03T02:26:37.408Z,99205.19
2023-04-03T02:31:41.152Z,99207.75
2023-04-03T02:36:43.953Z,99177.84
2023-04-03T02:41:48.045Z,99198.31
2023-04-03T02:46:56.169Z,99190.72
2023-04-03T02:51:59.673Z,99183.91
2023-04-03T02:57:02.653Z,99189.06
2023-04-03T03:02:05.681Z,99196.00
2023-04-03T03:07:08.435Z,99196.91
2023-04-03T03:12:11.308Z,99196.09
2023-04-03T03:17:13.868Z,99203.69
2023-04-03T03:22:17.650Z,99201.91
2023-04-03T03:27:20.306Z,99216.53
2023-04-03T03:32:23.206Z,99212.19
2023-04-03T03:37:26.013Z,99221.56
2023-04-03T03:42:28.670Z,99215.41
2023-04-03T03:47:31.781Z,99222.97
2023-04-03T03:52:34.545Z,99222.75
2023-04-03T03:57:37.767Z,99189.19
2023-04-03T04:02:41.506Z,99218.88
2023-04-03T04:07:47.447Z,99229.94
2023-04-03T04:12:52.502Z,99197.25
2023-04-03T04:17:59.100Z,99215.44
2023-04-03T04:23:02.200Z,99224.44
2023-04-03T04:28:07.598Z,99219.63
2023-04-03T04:33:11.130Z,99231.28
2023-04-03T04:38:14.791Z,99229.09
2023-04-03T04:43:18.265Z,99234.81
2023-04-03T04:48:23.550Z,99224.88
2023-04-03T04:53:26.413Z,99225.00
2023-04-03T04:58:29.673Z,99237.06
2023-04-03T05:03:33.457Z,99231.88
2023-04-03T05:08:36.400Z,99248.03
2023-04-03T05:13:39.973Z,99235.72
2023-04-03T05:18:42.784Z,99242.28
2023-04-03T05:23:53.403Z,99237.69
2023-04-03T05:28:57.277Z,99237.59
2023-04-03T05:34:00.510Z,99242.84
2023-04-03T05:39:05.272Z,99244.41
2023-04-03T05:44:11.247Z,99246.78
2023-04-03T05:49:14.015Z,99234.75
2023-04-03T05:54:26.103Z,99242.31
2023-04-03T05:59:33.843Z,99243.22
2023-04-03T06:04:36.936Z,99250.25
2023-04-03T06:09:40.985Z,99258.06
2023-04-03T06:14:43.889Z,99267.59
2023-04-03T06:19:47.318Z,99254.16
2023-04-03T06:24:50.327Z,99278.13
2023-04-03T06:29:53.003Z,99279.91
2023-04-03T06:34:56.631Z,99280.78
2023-04-03T06:40:01.498Z,99280.00
2023-04-03T06:45:04.662Z,99275.56
2023-04-03T06:50:08.339Z,99284.94
2023-04-03T06:55:11.535Z,99285.25
2023-04-03T07:00:17.319Z,99287.59
2023-04-03T07:05:20.243Z,99276.59
2023-04-03T07:10:23.725Z,99283.53
2023-04-03T07:15:26.407Z,99285.09
2023-04-03T07:20:29.181Z,99281.22
2023-04-03T07:25:33.413Z,99278.22
2023-04-03T07:30:43.996Z,99267.28
2023-04-03T07:35:47.214Z,99268.44
2023-04-03T07:40:51.820Z,99264.97
2023-04-03T07:45:55.284Z,99275.00
2023-04-03T07:51:02.075Z,99277.41
2023-04-03T07:56:04.939Z,99278.50
2023-04-03T08:01:07.647Z,99278.22
2023-04-03T08:06:15.783Z,99289.75
2023-04-03T08:11:19.958Z,99279.41
2023-04-03T08:16:26.719Z,99280.25
2023-04-03T08:21:29.295Z,99280.16
2023-04-03T08:26:32.186Z,99283.25
2023-04-03T08:31:34.853Z,99276.25
2023-04-03T08:36:37.484Z,99265.13
2023-04-03T08:41:43.641Z,99283.31
2023-04-03T08:46:55.309Z,99293.22
2023-04-03T08:52:00.475Z,99297.19
2023-04-03T08:57:07.585Z,99298.94
2023-04-03T09:02:48.399Z,99306.75
2023-04-03T09:08:01.776Z,99298.84
2023-04-03T09:13:32.395Z,99312.88
2023-04-03T09:18:43.005Z,99316.91
2023-04-03T09:23:51.220Z,99318.25
2023-04-03T09:28:56.996Z,99319.53
2023-04-03T09:34:27.454Z,99316.22
2023-04-03T09:39:30.819Z,99293.31
2023-04-03T09:44:36.908Z,99319.75
2023-04-03T09:49:39.486Z,99309.78
2023-04-03T09:54:42.400Z,99313.28
2023-04-03T09:59:59.819Z,99312.59
2023-04-03T10:05:09.509Z,99324.09
2023-04-03T10:10:15.739Z,99315.53
2023-04-03T10:15:22.662Z,99308.06
2023-04-03T10:20:31.483Z,99322.44
2023-04-03T10:25:45.284Z,99327.97
2023-04-03T10:30:47.845Z,99324.53
2023-04-03T10:36:12.927Z,99334.50
2023-04-03T10:41:27.311Z,99333.56
2023-04-03T10:46:42.605Z,99331.06
2023-04-03T10:51:49.474Z,99333.94
2023-04-03T10:57:08.712Z,99296.94
2023-04-03T11:02:18.503Z,99331.44
2023-04-03T11:07:32.749Z,99323.16
2023-04-03T11:12:46.518Z,99304.72
2023-04-03T11:17:56.331Z,99321.31
2023-04-03T11:23:05.152Z,99314.97
2023-04-03T11:28:14.486Z,99316.06
2023-04-03T11:33:36.451Z,99321.22
2023-04-03T11:38:44.600Z,99311.63
2023-04-03T11:43:59.360Z,99313.09
2023-04-03T11:49:02.023Z,99320.34
2023-04-03T11:54:44.851Z,99324.66
2023-04-03T11:59:48.227Z,99311.19
2023-04-03T12:05:29.857Z,99324.97
2023-04-03T12:10:32.915Z,99327.44
2023-04-03T12:15:38.871Z,99329.28
2023-04-03T12:20:55.140Z,99301.59
2023-04-03T12:26:06.063Z,99325.72
2023-04-03T12:31:11.847Z,99323.66
2023-04-03T12:36:32.018Z,99326.75
2023-04-03T12:41:46.107Z,99321.53
2023-04-03T12:46:52.026Z,99319.81
2023-04-03T12:51:54.909Z,99319.97
2023-04-03T12:57:24.807Z,99327.03
2023-04-03T13:02:34.579Z,99330.09
2023-04-03T13:07:42.001Z,99343.56
2023-04-03T13:12:50.541Z,99327.41
2023-04-03T13:17:56.142Z,99337.31
2023-04-03T13:23:06.357Z,99339.66
2023-04-03T13:28:14.632Z,99338.06
2023-04-03T13:33:24.079Z,99341.34
2023-04-03T13:38:32.534Z,99336.16
2023-04-03T13:43:37.858Z,99350.91
2023-04-03T13:48:51.046Z,99349.56
2023-04-03T13:54:01.064Z,99355.19
2023-04-03T13:59:06.918Z,99353.81
2023-04-03T14:04:22.859Z,99352.16
2023-04-03T14:09:27.772Z,99354.19
2023-04-03T14:14:34.169Z,99343.03
2023-04-03T14:19:37.317Z,99355.25
2023-04-03T14:24:40.419Z,99352.88
2023-04-03T14:29:43.248Z,99358.28
2023-04-03T14:34:46.734Z,99360.44
2023-04-03T14:39:49.802Z,99357.22
2023-04-03T14:44:53.737Z,99348.19
2023-04-03T14:49:56.433Z,99334.47
2023-04-03T14:54:59.900Z,99360.44
2023-04-03T15:00:13.523Z,99363.78
2023-04-03T15:05:17.064Z,99366.38
2023-04-03T15:10:25.937Z,99346.91
2023-04-03T15:15:30.480Z,99354.50
2023-04-03T15:20:34.721Z,99357.13
2023-04-03T15:25:37.362Z,99365.13
2023-04-03T15:30:41.760Z,99362.22
2023-04-03T15:35:44.473Z,99359.56
2023-04-03T15:40:48.183Z,99363.91
2023-04-03T15:45:51.706Z,99364.81
2023-04-03T15:50:56.627Z,99369.41
2023-04-03T15:56:00.492Z,99367.63
2023-04-03T16:01:03.414Z,99368.94
2023-04-03T16:06:06.358Z,99379.44
2023-04-03T16:11:09.351Z,99381.34
2023-04-03T16:16:11.989Z,99382.19
2023-04-03T16:21:16.583Z,99382.16
2023-04-03T16:26:19.880Z,99379.72
2023-04-03T16:31:24.110Z,99374.63
2023-04-03T16:36:26.962Z,99385.84
2023-04-03T16:41:29.609Z,99391.03
2023-04-03T16:46:32.305Z,99394.69
2023-04-03T16:51:34.937Z,99390.69
2023-04-03T16:56:37.853Z,99390.97
2023-04-03T17:01:40.678Z,99387.56
2023-04-03T17:06:43.341Z,99422.69
2023-04-03T17:11:48.635Z,99433.16
2023-04-03T17:16:52.703Z,99424.72
2023-04-03T17:21:56.171Z,99441.19
2023-04-03T17:26:59.083Z,99438.63
2023-04-03T17:32:01.803Z,99436.94
2023-04-03T17:37:04.775Z,99439.91
2023-04-03T17:42:07.549Z,99442.63
2023-04-03T17:47:10.295Z,99442.75
2023-04-03T17:52:12.963Z,99437.69
2023-04-03T17:57:15.571Z,99443.88
2023-04-03T18:02:18.336Z,99447.34
2023-04-03T18:07:21.129Z,99447.41
2023-04-03T18:12:24.374Z,99444.03
2023-04-03T18:17:27.227Z,99437.22
2023-04-03T18:22:30.069Z,99435.69
2023-04-03T18:27:32.773Z,99425.47
2023-04-03T18:32:35.394Z,99428.06
2023-04-03T18:37:38.118Z,99427.31
2023-04-03T18:42:41.990Z,99429.84
2023-04-03T18:47:44.686Z,99432.38
2023-04-03T18:52:50.960Z,99434.25
2023-04-03T18:57:53.643Z,99415.25
2023-04-03T19:02:56.400Z,99421.31
2023-04-03T19:07:59.060Z,99434.34
2023-04-03T19:13:01.947Z,99428.38
2023-04-03T19:18:04.764Z,99434.44
2023-04-03T19:23:08.891Z,99443.09
2023-04-03T19:28:13.113Z,99427.59
2023-04-03T19:33:16.413Z,99429.44
2023-04-03T19:38:19.061Z,99434.66
2023-04-03T19:43:21.833Z,99428.59
2023-04-03T19:48:25.252Z,99432.94
2023-04-03T19:53:31.242Z,99429.47
2023-04-03T19:58:34.321Z,99421.72
2023-04-03T20:03:36.892Z,99425.19
2023-04-03T20:08:39.614Z,99430.19
2023-04-03T20:13:42.419Z,99431.03
2023-04-03T20:18:45.976Z,99429.34
2023-04-03T20:23:51.467Z,99431.03
2023-04-03T20:28:56.895Z,99413.94
2023-04-03T20:33:59.458Z,99425.28
2023-04-03T20:39:02.259Z,99415.75
2023-04-03T20:44:05.757Z,99418.34
2023-04-03T20:49:08.509Z,99414.94
2023-04-03T20:54:11.624Z,99418.31
2023-04-03T20:59:14.356Z,99407.91
2023-04-03T21:04:32.482Z,99415.56
2023-04-03T21:10:12.492Z,99416.59
2023-04-03T21:15:46.157Z,99403.69
2023-04-03T21:20:49.617Z,99397.72
2023-04-03T21:25:52.332Z,99401.97
2023-04-03T21:30:55.050Z,99392.53
2023-04-03T21:36:00.021Z,99393.34
2023-04-03T21:41:03.084Z,99407.91
2023-04-03T21:46:06.390Z,99399.31
2023-04-03T21:51:09.077Z,99396.78
2023-04-03T21:56:11.658Z,99401.09
2023-04-03T22:01:15.760Z,99401.94
2023-04-03T22:06:18.712Z,99395.03
2023-04-03T22:11:23.115Z,99391.53
2023-04-03T22:16:26.773Z,99354.66
2023-04-03T22:21:29.519Z,99393.28
2023-04-03T22:26:32.112Z,99386.53
2023-04-03T22:31:35.649Z,99383.16
2023-04-03T22:36:38.844Z,99347.25
2023-04-03T22:41:42.196Z,99369.53
2023-04-03T22:46:44.899Z,99379.03
2023-04-03T22:51:47.514Z,99362.81
2023-04-03T22:56:50.057Z,99376.56
2023-04-03T23:01:52.724Z,99373.13
2023-04-03T23:06:55.507Z,99370.63
2023-04-03T23:11:58.703Z,99367.28
2023-04-03T23:17:05.782Z,99366.47
2023-04-03T23:22:08.361Z,99358.78
2023-04-03T23:27:10.911Z,99367.34
2023-04-03T23:32:13.602Z,99346.78
2023-04-03T23:37:16.482Z,99358.78
2023-04-03T23:42:19.085Z,99361.41
2023-04-03T23:47:21.994Z,99357.13
2023-04-03T23:52:24.703Z,99360.53
2023-04-03T23:57:27.396Z,99310.81
